Terminal Aerodrome Forecast
Issued by NWS

Home | Current Version | Previous Version | Text Only | Print | Product List | Glossary On
Versions: 1 2 3 4 5 6 7 8 9 10 11 12
000
FTUS44 KSJT 240520
TAFBBD
TAF
KBBD 240520Z 2406/2506 14005KT P6SM SKC
     FM241500 18007KT P6SM SKC
     FM241800 13008KT P6SM FEW060
      AMD NOT SKED=

USA.gov is the U.S. government's official web portal to all federal, state and local government web resources and services.